Flinterbothnia — PBLG — position and weather

sailwx.info

Track history (hours):
 
Tides and Currents Weather Stations Pressure Air Temp Water Temp Dewpoint Dewpoint Depression Visibility Wind Speed Wind Dir Waves Ship Positions

Flinterbothnia

Last reported at 2016-Jun-30 09:11 UTC. Time now 2016-Jul-01 06:19 UTC.
Position N 54°37' W 005°55'.

Length 82 m; draft 5.4 m.

Type: Cargo ship. MMSI: 244741000.

Date/timePositionNaut miles runAvg speedWind from/ knotsBaromVisibWave heightAir tempDewpointWater temp
2016-Jun-30 09:11N 54°37' W 005°55'0 0.0
2016-Jun-30 08:32N 54°37' W 005°55'0 0.0
2016-Jun-30 07:33N 54°37' W 005°55'0 0.0
2016-Jun-30 06:30N 54°37' W 005°55'0 0.0
2016-Jun-30 05:33N 54°37' W 005°55'0 0.0
2016-Jun-30 04:33N 54°37' W 005°55'0 0.0
2016-Jun-30 03:33N 54°37' W 005°55'0 0.0
2016-Jun-30 02:33N 54°37' W 005°55'0 0.0
2016-Jun-30 01:33N 54°37' W 005°55'0 0.0
2016-Jun-30 00:29N 54°37' W 005°55'0 0.0
2016-Jun-29 23:33N 54°37' W 005°55'0 0.0
2016-Jun-29 22:32N 54°37' W 005°55'0 0.0
2016-Jun-29 21:32N 54°37' W 005°55'5 4.6
2016-Jun-29 20:33N 54°40' W 005°49'7 7.4
2016-Jun-29 19:33N 54°45' W 005°40'5 5.1
2016-Jun-29 18:30N 54°51' W 005°40'17 7.9
2016-Jun-29 16:18N 55°07' W 005°52'1012.8
2016-Jun-29 15:33N 55°15' W 006°01'1211.8
2016-Jun-29 14:33N 55°23' W 006°16'1110.8
2016-Jun-29 13:33N 55°32' W 006°26'1110.6
2016-Jun-29 12:33N 55°41' W 006°34'192 8.0
2016-Jun-28 12:33N 58°40' W 004°28'9 8.7
2016-Jun-28 11:33N 58°41' W 004°11'9 8.7
2016-Jun-28 10:33N 58°42' W 003°54'9 9.5
2016-Jun-28 09:33N 58°43' W 003°36'1111.4
2016-Jun-28 08:33N 58°43' W 003°14'1313.6
2016-Jun-28 07:34N 58°42' W 002°48'277 9.5
2016-Jun-27 02:26N 57°59' E 005°53'910.6
2016-Jun-27 01:33N 57°58' E 006°11'1110.8
2016-Jun-27 00:33N 57°56' E 006°31'1110.7
2016-Jun-26 23:32N 57°54' E 006°51'125 8.8
2016-Jun-26 09:20N 57°47' E 010°46'7 9.1
2016-Jun-26 08:33N 57°43' E 010°56'9 9.5
2016-Jun-26 07:33N 57°36' E 011°09'9 9.3
2016-Jun-26 06:34N 57°30' E 011°22'1010.1
2016-Jun-26 05:34N 57°21' E 011°31'1110.5
2016-Jun-26 04:32N 57°12' E 011°39'6110.1
2016-Jun-25 22:34N 56°16' E 012°25'1010.0
2016-Jun-25 21:34N 56°08' E 012°33'10 9.8
2016-Jun-25 20:33N 55°59' E 012°42'9 9.5
2016-Jun-25 19:34N 55°50' E 012°43'1010.2
2016-Jun-25 18:34N 55°40' E 012°42'9 9.2
2016-Jun-25 17:34N 55°30' E 012°43'9 9.3
2016-Jun-25 16:33N 55°21' E 012°41'9 8.5
2016-Jun-25 15:33N 55°16' E 012°54'1010.0
2016-Jun-25 14:34N 55°16' E 013°11'1010.2
2016-Jun-25 13:33N 55°15' E 013°29'1010.2
2016-Jun-25 12:33N 55°15' E 013°47'1110.6
2016-Jun-25 11:33N 55°14' E 014°06'9 9.4
2016-Jun-25 10:34N 55°17' E 014°21'10 9.9
2016-Jun-25 09:33N 55°24' E 014°34'10 9.9
2016-Jun-25 08:33N 55°30' E 014°48'10 9.9
2016-Jun-25 07:34N 55°35' E 015°03'1010.0
2016-Jun-25 06:32N 55°40' E 015°18'  
Track history (hours):
 
Tides and Currents Weather Stations Pressure Air Temp Water Temp Dewpoint Dewpoint Depression Visibility Wind Speed Wind Dir Waves Ship Positions

Flinterbothnia

Last reported at 2016-Jun-30 09:11 UTC. Time now 2016-Jul-01 06:19 UTC.
Position N 54°37' W 005°55'.

Length 82 m; draft 5.4 m.

Type: Cargo ship. MMSI: 244741000.

Date/timePositionNaut miles runAvg speedWind from/ knotsBaromVisibWave heightAir tempDewpointWater temp
2016-Jun-30 09:11N 54°37' W 005°55'0 0.0
2016-Jun-30 08:32N 54°37' W 005°55'0 0.0
2016-Jun-30 07:33N 54°37' W 005°55'0 0.0
2016-Jun-30 06:30N 54°37' W 005°55'0 0.0
2016-Jun-30 05:33N 54°37' W 005°55'0 0.0
2016-Jun-30 04:33N 54°37' W 005°55'0 0.0
2016-Jun-30 03:33N 54°37' W 005°55'0 0.0
2016-Jun-30 02:33N 54°37' W 005°55'0 0.0
2016-Jun-30 01:33N 54°37' W 005°55'0 0.0
2016-Jun-30 00:29N 54°37' W 005°55'0 0.0
2016-Jun-29 23:33N 54°37' W 005°55'0 0.0
2016-Jun-29 22:32N 54°37' W 005°55'0 0.0
2016-Jun-29 21:32N 54°37' W 005°55'5 4.6
2016-Jun-29 20:33N 54°40' W 005°49'7 7.4
2016-Jun-29 19:33N 54°45' W 005°40'5 5.1
2016-Jun-29 18:30N 54°51' W 005°40'17 7.9
2016-Jun-29 16:18N 55°07' W 005°52'1012.8
2016-Jun-29 15:33N 55°15' W 006°01'1211.8
2016-Jun-29 14:33N 55°23' W 006°16'1110.8
2016-Jun-29 13:33N 55°32' W 006°26'1110.6
2016-Jun-29 12:33N 55°41' W 006°34'192 8.0
2016-Jun-28 12:33N 58°40' W 004°28'9 8.7
2016-Jun-28 11:33N 58°41' W 004°11'9 8.7
2016-Jun-28 10:33N 58°42' W 003°54'9 9.5
2016-Jun-28 09:33N 58°43' W 003°36'1111.4
2016-Jun-28 08:33N 58°43' W 003°14'1313.6
2016-Jun-28 07:34N 58°42' W 002°48'277 9.5
2016-Jun-27 02:26N 57°59' E 005°53'910.6
2016-Jun-27 01:33N 57°58' E 006°11'1110.8
2016-Jun-27 00:33N 57°56' E 006°31'1110.7
2016-Jun-26 23:32N 57°54' E 006°51'125 8.8
2016-Jun-26 09:20N 57°47' E 010°46'7 9.1
2016-Jun-26 08:33N 57°43' E 010°56'9 9.5
2016-Jun-26 07:33N 57°36' E 011°09'9 9.3
2016-Jun-26 06:34N 57°30' E 011°22'1010.1
2016-Jun-26 05:34N 57°21' E 011°31'1110.5
2016-Jun-26 04:32N 57°12' E 011°39'6110.1
2016-Jun-25 22:34N 56°16' E 012°25'1010.0
2016-Jun-25 21:34N 56°08' E 012°33'10 9.8
2016-Jun-25 20:33N 55°59' E 012°42'9 9.5
2016-Jun-25 19:34N 55°50' E 012°43'1010.2
2016-Jun-25 18:34N 55°40' E 012°42'9 9.2
2016-Jun-25 17:34N 55°30' E 012°43'9 9.3
2016-Jun-25 16:33N 55°21' E 012°41'9 8.5
2016-Jun-25 15:33N 55°16' E 012°54'1010.0
2016-Jun-25 14:34N 55°16' E 013°11'1010.2
2016-Jun-25 13:33N 55°15' E 013°29'1010.2
2016-Jun-25 12:33N 55°15' E 013°47'1110.6
2016-Jun-25 11:33N 55°14' E 014°06'9 9.4
2016-Jun-25 10:34N 55°17' E 014°21'10 9.9
2016-Jun-25 09:33N 55°24' E 014°34'10 9.9
2016-Jun-25 08:33N 55°30' E 014°48'10 9.9
2016-Jun-25 07:34N 55°35' E 015°03'1010.0
2016-Jun-25 06:32N 55°40' E 015°18'  

Dump ship's entire track history